createdAt,value
2022-10-13T00:01:18.447Z,10.66
2022-10-13T00:03:48.720Z,10.65
2022-10-13T00:06:23.237Z,10.69
2022-10-13T00:08:54.920Z,10.76
2022-10-13T00:11:25.315Z,10.75
2022-10-13T00:13:55.071Z,10.72
2022-10-13T00:16:24.479Z,10.46
2022-10-13T00:18:51.290Z,10.51
2022-10-13T00:21:20.491Z,10.46
2022-10-13T00:23:47.830Z,10.46
2022-10-13T00:26:20.218Z,10.37
2022-10-13T00:28:51.971Z,10.40
2022-10-13T00:31:23.622Z,10.35
2022-10-13T00:33:53.421Z,10.45
2022-10-13T00:36:23.503Z,10.50
2022-10-13T00:38:53.528Z,10.48
2022-10-13T00:41:24.923Z,10.35
2022-10-13T00:44:03.547Z,10.31
2022-10-13T00:46:35.003Z,10.36
2022-10-13T00:49:08.856Z,10.47
2022-10-13T00:51:40.812Z,10.49
2022-10-13T00:54:11.504Z,10.48
2022-10-13T00:56:43.077Z,10.47
2022-10-13T00:59:22.978Z,10.47
2022-10-13T01:01:51.426Z,10.34
2022-10-13T01:04:22.638Z,10.37
2022-10-13T01:06:52.383Z,10.24
2022-10-13T01:09:19.308Z,10.21
2022-10-13T01:12:16.563Z,10.22
2022-10-13T01:15:29.662Z,10.24
2022-10-13T01:18:51.156Z,10.34
2022-10-13T01:21:20.241Z,10.39
2022-10-13T01:24:14.575Z,10.25
2022-10-13T01:26:55.589Z,10.34
2022-10-13T01:29:47.158Z,10.33
2022-10-13T01:32:32.156Z,10.33
2022-10-13T01:35:17.336Z,10.41
2022-10-13T01:37:50.685Z,10.36
2022-10-13T01:40:32.445Z,10.53
2022-10-13T01:43:22.365Z,10.58
2022-10-13T01:46:07.938Z,10.55
2022-10-13T01:48:38.050Z,10.48
2022-10-13T01:51:11.550Z,10.49
2022-10-13T01:53:39.082Z,10.37
2022-10-13T01:56:08.635Z,10.42
2022-10-13T01:58:38.097Z,10.51
2022-10-13T02:01:13.674Z,10.34
2022-10-13T02:03:52.214Z,10.46
2022-10-13T02:06:24.050Z,10.30
2022-10-13T02:09:02.067Z,10.41
2022-10-13T02:11:28.761Z,10.48
2022-10-13T02:14:32.693Z,10.49
2022-10-13T02:17:03.740Z,10.58
2022-10-13T02:19:33.764Z,10.63
2022-10-13T02:22:03.842Z,10.55
2022-10-13T02:24:33.275Z,10.66
2022-10-13T02:26:59.917Z,10.69
2022-10-13T02:29:29.933Z,10.65
2022-10-13T02:31:56.933Z,10.59
2022-10-13T02:34:23.541Z,10.54
2022-10-13T02:36:50.472Z,10.55
2022-10-13T02:39:17.896Z,10.44
2022-10-13T02:41:46.745Z,10.65
2022-10-13T02:44:13.334Z,10.69
2022-10-13T02:46:40.235Z,10.75
2022-10-13T02:49:07.308Z,10.77
2022-10-13T02:51:40.105Z,10.73
2022-10-13T02:54:07.087Z,10.76
2022-10-13T02:56:33.663Z,10.74
2022-10-13T02:59:00.575Z,10.78
2022-10-13T03:01:29.550Z,10.89
2022-10-13T03:03:56.234Z,10.82
2022-10-13T03:06:23.147Z,10.90
2022-10-13T03:08:51.950Z,10.75
2022-10-13T03:11:18.528Z,10.72
2022-10-13T03:13:47.415Z,10.85
2022-10-13T03:16:13.924Z,10.89
2022-10-13T03:18:42.722Z,10.93
2022-10-13T03:21:11.853Z,10.86
2022-10-13T03:23:38.342Z,10.85
2022-10-13T03:26:05.196Z,10.88
2022-10-13T03:28:36.598Z,10.88
2022-10-13T03:31:11.236Z,10.86
2022-10-13T03:33:37.748Z,10.80
2022-10-13T03:36:06.109Z,10.88
2022-10-13T03:38:34.215Z,10.73
2022-10-13T03:41:15.102Z,10.65
2022-10-13T03:43:45.159Z,10.77
2022-10-13T03:46:17.446Z,10.84
2022-10-13T03:48:46.848Z,10.76
2022-10-13T03:51:16.186Z,10.85
2022-10-13T03:53:43.115Z,10.87
2022-10-13T03:56:17.996Z,10.82
2022-10-13T03:58:47.887Z,10.93
2022-10-13T04:01:14.628Z,11.00
2022-10-13T04:03:41.616Z,10.94
2022-10-13T04:06:10.655Z,10.92
2022-10-13T04:08:41.942Z,10.99
2022-10-13T04:11:12.300Z,10.96
2022-10-13T04:13:44.553Z,10.88
2022-10-13T04:16:14.201Z,10.99
2022-10-13T04:18:44.802Z,11.02
2022-10-13T04:21:17.699Z,11.10
2022-10-13T04:23:46.321Z,11.14
2022-10-13T04:26:23.531Z,11.05
2022-10-13T04:28:55.819Z,11.09
2022-10-13T04:31:26.090Z,11.14
2022-10-13T04:33:53.418Z,11.22
2022-10-13T04:36:20.199Z,11.17
2022-10-13T04:38:47.321Z,11.15
2022-10-13T04:41:20.923Z,11.17
2022-10-13T04:43:51.174Z,11.23
2022-10-13T04:46:23.900Z,11.32
2022-10-13T04:48:52.819Z,11.30
2022-10-13T04:51:21.801Z,11.41
2022-10-13T04:53:50.837Z,11.42
2022-10-13T04:56:20.267Z,11.50
2022-10-13T04:58:49.623Z,11.48
2022-10-13T05:01:22.063Z,11.53
2022-10-13T05:04:01.012Z,11.55
2022-10-13T05:06:30.504Z,11.54
2022-10-13T05:08:57.462Z,11.58
2022-10-13T05:11:26.567Z,11.60
2022-10-13T05:13:55.838Z,11.57
2022-10-13T05:16:23.166Z,11.52
2022-10-13T05:18:51.356Z,11.49
2022-10-13T05:21:24.438Z,11.48
2022-10-13T05:23:54.364Z,11.43
2022-10-13T05:26:29.076Z,11.46
2022-10-13T05:29:02.907Z,11.49
2022-10-13T05:31:31.333Z,11.42
2022-10-13T05:33:58.491Z,11.45
2022-10-13T05:36:33.481Z,11.47
2022-10-13T05:39:04.767Z,11.40
2022-10-13T05:41:31.499Z,11.41
2022-10-13T05:44:05.306Z,11.46
2022-10-13T05:46:32.124Z,11.49
2022-10-13T05:48:58.827Z,11.54
2022-10-13T05:51:32.166Z,11.44
2022-10-13T05:54:04.743Z,11.35
2022-10-13T05:57:01.834Z,11.37
2022-10-13T05:59:35.390Z,11.47
2022-10-13T06:02:09.303Z,11.41
2022-10-13T06:04:46.016Z,11.50
2022-10-13T06:07:13.343Z,11.55
2022-10-13T06:09:43.970Z,11.65
2022-10-13T06:12:11.175Z,11.68
2022-10-13T06:14:37.780Z,11.67
2022-10-13T06:17:04.850Z,11.71
2022-10-13T06:19:31.452Z,11.81
2022-10-13T06:22:03.650Z,11.88
2022-10-13T06:24:32.821Z,11.93
2022-10-13T06:27:04.681Z,11.96
2022-10-13T06:29:32.942Z,11.86
2022-10-13T06:31:59.525Z,11.91
2022-10-13T06:34:28.962Z,11.82
2022-10-13T06:36:55.759Z,11.87
2022-10-13T06:39:22.673Z,11.83
2022-10-13T06:41:49.997Z,11.90
2022-10-13T06:44:19.106Z,11.82
2022-10-13T06:46:45.637Z,11.86
2022-10-13T06:49:17.394Z,11.87
2022-10-13T06:51:44.182Z,11.86
2022-10-13T06:54:11.033Z,11.86
2022-10-13T06:56:37.952Z,11.94
2022-10-13T06:59:04.888Z,11.87
2022-10-13T07:01:40.634Z,11.97
2022-10-13T07:04:08.765Z,12.09
2022-10-13T07:06:35.470Z,12.09
2022-10-13T07:09:08.914Z,12.10
2022-10-13T07:11:38.787Z,12.22
2022-10-13T07:14:07.787Z,12.10
2022-10-13T07:16:36.930Z,12.14
2022-10-13T07:19:06.178Z,12.28
2022-10-13T07:21:34.974Z,12.24
2022-10-13T07:24:04.382Z,12.28
2022-10-13T07:26:34.039Z,12.26
2022-10-13T07:29:03.519Z,12.36
2022-10-13T07:31:32.711Z,12.31
2022-10-13T07:34:00.397Z,12.37
2022-10-13T07:36:29.680Z,12.41
2022-10-13T07:38:58.672Z,12.45
2022-10-13T07:41:27.597Z,12.46
2022-10-13T07:43:57.645Z,12.50
2022-10-13T07:46:25.411Z,12.59
2022-10-13T07:48:55.523Z,12.59
2022-10-13T07:51:23.183Z,12.69
2022-10-13T07:53:52.545Z,12.76
2022-10-13T07:56:19.269Z,12.84
2022-10-13T07:58:48.195Z,12.97
2022-10-13T08:01:17.174Z,13.08
2022-10-13T08:03:50.150Z,13.16
2022-10-13T08:06:17.794Z,13.25
2022-10-13T08:08:44.345Z,13.29
2022-10-13T08:11:16.177Z,13.38
2022-10-13T08:13:46.958Z,13.50
2022-10-13T08:16:13.506Z,13.49
2022-10-13T08:18:40.056Z,13.62
2022-10-13T08:21:39.311Z,13.59
2022-10-13T08:23:58.632Z,13.73
2022-10-13T08:26:27.437Z,13.60
2022-10-13T08:31:42.136Z,13.76
2022-10-13T08:34:09.869Z,13.77
2022-10-13T08:36:39.718Z,13.75
2022-10-13T08:39:06.653Z,13.82
2022-10-13T08:41:44.124Z,13.82
2022-10-13T08:45:05.918Z,13.78
2022-10-13T08:47:29.523Z,13.87
2022-10-13T08:50:08.983Z,13.80
2022-10-13T08:52:57.650Z,13.91
2022-10-13T08:55:32.875Z,13.82
2022-10-13T08:58:01.977Z,13.90
2022-10-13T09:00:32.489Z,14.04
2022-10-13T09:03:22.229Z,14.12
2022-10-13T09:06:16.078Z,14.22
2022-10-13T09:08:52.603Z,14.28
2022-10-13T09:11:20.632Z,14.43
2022-10-13T09:13:49.353Z,14.56
2022-10-13T09:16:16.297Z,14.69
2022-10-13T09:18:42.885Z,14.84
2022-10-13T09:21:24.633Z,14.96
2022-10-13T09:23:54.516Z,15.01
2022-10-13T09:26:25.252Z,15.12
2022-10-13T09:28:52.929Z,15.18
2022-10-13T09:31:27.627Z,15.23
2022-10-13T09:33:59.750Z,15.23
2022-10-13T09:36:29.433Z,15.33
2022-10-13T09:39:16.103Z,15.36
2022-10-13T09:41:44.152Z,15.33
2022-10-13T09:44:12.630Z,15.26
2022-10-13T09:46:53.972Z,15.36
2022-10-13T09:49:23.440Z,15.34
2022-10-13T09:51:50.252Z,15.36
2022-10-13T09:54:46.646Z,15.38
2022-10-13T09:57:31.141Z,15.45
2022-10-13T10:00:06.223Z,15.50
2022-10-13T10:02:37.308Z,15.51
2022-10-13T10:05:22.191Z,15.66
2022-10-13T10:07:50.957Z,15.80
2022-10-13T10:10:35.963Z,15.83
2022-10-13T10:13:06.377Z,15.95
2022-10-13T10:16:04.456Z,16.03
2022-10-13T10:18:42.468Z,15.78
2022-10-13T10:21:20.391Z,15.77
2022-10-13T10:23:52.360Z,15.96
2022-10-13T10:26:26.670Z,16.04
2022-10-13T10:29:05.139Z,15.90
2022-10-13T10:32:02.509Z,16.00
2022-10-13T10:34:37.232Z,16.18
2022-10-13T10:37:26.528Z,16.32
2022-10-13T10:40:00.823Z,16.40
2022-10-13T10:42:39.256Z,16.40
2022-10-13T10:45:17.607Z,16.37
2022-10-13T10:47:47.740Z,16.44
2022-10-13T10:50:16.776Z,16.52
2022-10-13T10:52:52.977Z,16.61
2022-10-13T10:55:33.374Z,16.67
2022-10-13T10:58:22.888Z,16.73
2022-10-13T11:01:12.518Z,16.71
2022-10-13T11:04:22.177Z,16.62
2022-10-13T11:06:49.167Z,16.79
2022-10-13T11:09:41.359Z,16.62
2022-10-13T11:12:20.698Z,16.80
2022-10-13T11:14:47.483Z,16.89
2022-10-13T11:17:17.491Z,17.05
2022-10-13T11:19:48.080Z,17.10
2022-10-13T11:22:19.165Z,17.08
2022-10-13T11:24:54.868Z,17.10
2022-10-13T11:27:28.330Z,17.07
2022-10-13T11:30:01.964Z,17.05
2022-10-13T11:32:31.118Z,17.18
2022-10-13T11:35:04.613Z,17.32
2022-10-13T11:38:13.958Z,17.42
2022-10-13T11:41:10.405Z,17.46
2022-10-13T11:43:46.621Z,17.30
2022-10-13T11:46:15.374Z,17.41
2022-10-13T11:48:57.137Z,17.46
2022-10-13T11:51:42.403Z,17.35
2022-10-13T11:54:21.601Z,17.50
2022-10-13T11:56:56.941Z,17.60
2022-10-13T11:59:40.069Z,17.80
2022-10-13T12:02:12.332Z,17.79
2022-10-13T12:04:46.457Z,17.80
2022-10-13T12:07:18.255Z,17.61
2022-10-13T12:09:53.188Z,17.57
2022-10-13T12:12:22.110Z,17.11
2022-10-13T12:14:51.913Z,17.01
2022-10-13T12:17:28.526Z,17.15
2022-10-13T12:19:59.880Z,17.16
2022-10-13T12:22:28.358Z,17.17
2022-10-13T12:24:59.679Z,17.05
2022-10-13T12:27:27.924Z,16.66
2022-10-13T12:29:56.881Z,16.80
2022-10-13T12:32:35.927Z,16.89
2022-10-13T12:35:23.890Z,16.79
2022-10-13T12:37:54.350Z,16.97
2022-10-13T12:40:21.935Z,17.26
2022-10-13T12:42:52.314Z,17.52
2022-10-13T12:45:24.139Z,17.71
2022-10-13T12:47:52.953Z,17.63
2022-10-13T12:50:25.576Z,17.75
2022-10-13T12:52:57.209Z,17.73
2022-10-13T12:55:26.097Z,17.78
2022-10-13T12:57:55.947Z,17.57
2022-10-13T13:00:27.613Z,17.58
2022-10-13T13:02:56.005Z,17.60
2022-10-13T13:05:36.225Z,17.63
2022-10-13T13:08:21.229Z,17.66
2022-10-13T13:11:07.457Z,17.69
2022-10-13T13:13:34.780Z,17.65
2022-10-13T13:16:24.633Z,17.64
2022-10-13T13:18:53.694Z,17.61
2022-10-13T13:21:22.578Z,17.50
2022-10-13T13:23:53.980Z,17.56
2022-10-13T13:26:29.451Z,17.43
2022-10-13T13:28:59.307Z,17.49
2022-10-13T13:31:26.253Z,17.57
2022-10-13T13:33:57.684Z,17.57
2022-10-13T13:36:28.234Z,17.56
2022-10-13T13:38:57.727Z,17.54
2022-10-13T13:41:27.928Z,17.42
2022-10-13T13:43:57.360Z,17.33
2022-10-13T13:46:25.653Z,17.27
2022-10-13T13:48:56.919Z,17.19
2022-10-13T13:51:23.505Z,17.23
2022-10-13T13:53:52.301Z,16.92
2022-10-13T13:56:23.558Z,16.69
2022-10-13T13:58:50.185Z,16.71
2022-10-13T14:01:19.332Z,16.71
2022-10-13T14:03:48.680Z,16.58
2022-10-13T14:06:23.016Z,16.48
2022-10-13T14:08:50.249Z,16.49
2022-10-13T14:11:19.081Z,16.50
2022-10-13T14:13:48.577Z,16.52
2022-10-13T14:16:17.842Z,16.43
2022-10-13T14:18:46.643Z,16.44
2022-10-13T14:21:15.585Z,16.15
2022-10-13T14:23:47.415Z,16.49
2022-10-13T14:26:14.647Z,16.64
2022-10-13T14:28:45.100Z,16.80
2022-10-13T14:31:15.512Z,16.91
2022-10-13T14:33:42.104Z,17.00
2022-10-13T14:36:11.595Z,17.01
2022-10-13T14:38:43.023Z,16.99
2022-10-13T14:41:09.600Z,16.90
2022-10-13T14:43:36.137Z,16.84
2022-10-13T14:46:06.772Z,16.79
2022-10-13T14:48:35.193Z,16.81
2022-10-13T14:51:09.358Z,16.82
2022-10-13T14:53:44.679Z,16.75
2022-10-13T14:56:27.764Z,16.72
2022-10-13T14:59:00.245Z,16.71
2022-10-13T15:01:28.910Z,16.66
2022-10-13T15:04:00.312Z,16.64
2022-10-13T15:06:27.366Z,16.64
2022-10-13T15:08:56.355Z,16.59
2022-10-13T15:11:23.023Z,16.51
2022-10-13T15:13:52.465Z,16.44
2022-10-13T15:16:27.889Z,16.31
2022-10-13T15:18:57.156Z,16.27
2022-10-13T15:21:26.181Z,16.00
2022-10-13T15:23:55.753Z,15.91
2022-10-13T15:26:25.102Z,15.87
2022-10-13T15:28:53.299Z,15.87
2022-10-13T15:31:24.489Z,15.91
2022-10-13T15:33:53.417Z,15.91
2022-10-13T15:36:21.481Z,15.85
2022-10-13T15:38:53.611Z,15.79
2022-10-13T15:41:21.467Z,15.74
2022-10-13T15:43:48.158Z,15.66
2022-10-13T15:46:24.084Z,15.65
2022-10-13T15:48:55.235Z,15.58
2022-10-13T15:51:27.110Z,15.46
2022-10-13T15:54:01.901Z,15.32
2022-10-13T15:56:30.740Z,15.21
2022-10-13T15:58:57.280Z,15.09
2022-10-13T16:01:23.893Z,14.92
2022-10-13T16:03:54.363Z,14.92
2022-10-13T16:06:22.457Z,14.87
2022-10-13T16:08:51.461Z,14.87
2022-10-13T16:11:20.297Z,14.80
2022-10-13T16:13:51.684Z,14.76
2022-10-13T16:16:19.253Z,14.76
2022-10-13T16:18:46.203Z,14.76
2022-10-13T16:21:17.428Z,14.79
2022-10-13T16:23:45.747Z,14.78
2022-10-13T16:26:12.318Z,14.69
2022-10-13T16:28:41.920Z,14.67
2022-10-13T16:31:14.950Z,14.44
2022-10-13T16:33:42.925Z,14.30
2022-10-13T16:36:17.111Z,13.96
2022-10-13T16:38:49.558Z,13.98
2022-10-13T16:41:18.311Z,13.95
2022-10-13T16:43:46.136Z,14.03
2022-10-13T16:46:16.667Z,14.05
2022-10-13T16:48:44.803Z,14.06
2022-10-13T16:51:22.487Z,14.10
2022-10-13T16:53:57.654Z,14.16
2022-10-13T16:56:30.519Z,14.13
2022-10-13T16:59:02.116Z,14.15
2022-10-13T17:01:32.856Z,14.04
2022-10-13T17:04:02.753Z,13.79
2022-10-13T17:06:38.622Z,13.83
2022-10-13T17:09:10.166Z,13.91
2022-10-13T17:11:39.184Z,13.83
2022-10-13T17:14:08.205Z,13.84
2022-10-13T17:16:36.086Z,13.84
2022-10-13T17:19:03.279Z,13.90
2022-10-13T17:21:32.472Z,13.72
2022-10-13T17:24:01.617Z,13.87
2022-10-13T17:26:28.338Z,13.86
2022-10-13T17:28:57.411Z,13.81
2022-10-13T17:31:24.948Z,13.81
2022-10-13T17:33:52.525Z,13.80
2022-10-13T17:36:32.050Z,13.81
2022-10-13T17:39:06.566Z,13.80
2022-10-13T17:41:36.003Z,13.77
2022-10-13T17:44:04.928Z,13.78
2022-10-13T17:46:37.388Z,13.84
2022-10-13T17:49:05.569Z,13.83
2022-10-13T17:51:32.211Z,13.85
2022-10-13T17:54:00.291Z,13.85
2022-10-13T17:56:27.463Z,13.88
2022-10-13T17:58:54.762Z,13.84
2022-10-13T18:01:24.002Z,13.69
2022-10-13T18:04:11.923Z,13.62
2022-10-13T18:06:47.887Z,13.66
2022-10-13T18:09:23.222Z,13.36
2022-10-13T18:11:54.396Z,13.44
2022-10-13T18:14:23.800Z,13.51
2022-10-13T18:16:52.000Z,13.51
2022-10-13T18:19:23.844Z,13.49
2022-10-13T18:21:50.654Z,13.45
2022-10-13T18:24:17.378Z,13.34
2022-10-13T18:26:46.433Z,13.37
2022-10-13T18:29:13.354Z,13.43
2022-10-13T18:31:41.538Z,13.41
2022-10-13T18:34:12.335Z,13.43
2022-10-13T18:36:47.594Z,13.47
2022-10-13T18:39:20.131Z,13.44
2022-10-13T18:41:47.859Z,13.46
2022-10-13T18:44:17.753Z,13.40
2022-10-13T18:46:46.530Z,13.39
2022-10-13T18:49:18.320Z,13.41
2022-10-13T18:51:50.682Z,13.35
2022-10-13T18:54:19.452Z,13.23
2022-10-13T18:56:46.032Z,13.27
2022-10-13T18:59:12.645Z,13.29
2022-10-13T19:01:40.866Z,13.26
2022-10-13T19:04:08.674Z,13.23
2022-10-13T19:06:37.746Z,13.30
2022-10-13T19:09:10.835Z,13.21
2022-10-13T19:11:40.662Z,13.17
2022-10-13T19:14:10.910Z,13.16
2022-10-13T19:16:42.732Z,13.19
2022-10-13T19:19:09.842Z,13.17
2022-10-13T19:21:37.821Z,13.18
2022-10-13T19:24:04.720Z,13.18
2022-10-13T19:26:33.498Z,13.13
2022-10-13T19:29:13.450Z,13.07
2022-10-13T19:31:43.943Z,13.15
2022-10-13T19:34:12.435Z,13.18
2022-10-13T19:36:44.244Z,13.16
2022-10-13T19:39:25.471Z,13.16
2022-10-13T19:41:53.863Z,13.11
2022-10-13T19:44:24.144Z,13.13
2022-10-13T19:46:51.876Z,13.18
2022-10-13T19:49:20.860Z,13.19
2022-10-13T19:51:50.488Z,13.16
2022-10-13T19:54:20.846Z,13.10
2022-10-13T19:56:51.739Z,13.12
2022-10-13T19:59:18.818Z,13.13
2022-10-13T20:01:45.442Z,13.06
2022-10-13T20:04:15.919Z,13.14
2022-10-13T20:06:45.103Z,13.09
2022-10-13T20:09:14.676Z,13.17
2022-10-13T20:11:47.314Z,13.10
2022-10-13T20:14:15.064Z,13.17
2022-10-13T20:16:41.788Z,13.17
2022-10-13T20:19:11.842Z,13.14
2022-10-13T20:21:40.974Z,13.16
2022-10-13T20:24:12.497Z,13.13
2022-10-13T20:26:41.265Z,13.09
2022-10-13T20:29:10.268Z,13.07
2022-10-13T20:31:39.065Z,13.06
2022-10-13T20:34:06.004Z,12.98
2022-10-13T20:36:38.778Z,12.95
2022-10-13T20:39:06.124Z,12.94
2022-10-13T20:41:32.976Z,12.73
2022-10-13T20:44:00.849Z,12.80
2022-10-13T20:46:29.923Z,12.81
2022-10-13T20:49:16.591Z,12.78
2022-10-13T20:51:43.832Z,12.90
2022-10-13T20:54:12.116Z,12.91
2022-10-13T20:56:41.761Z,12.89
2022-10-13T20:59:14.613Z,12.88
2022-10-13T21:01:41.607Z,12.88
2022-10-13T21:04:08.283Z,12.87
2022-10-13T21:06:37.503Z,12.85
2022-10-13T21:09:05.926Z,12.81
2022-10-13T21:11:35.810Z,12.77
2022-10-13T21:14:08.868Z,12.80
2022-10-13T21:16:38.193Z,12.77
2022-10-13T21:19:07.970Z,12.79
2022-10-13T21:21:38.304Z,12.79
2022-10-13T21:24:08.394Z,12.82
2022-10-13T21:26:35.569Z,12.74
2022-10-13T21:29:04.510Z,12.77
2022-10-13T21:31:33.792Z,12.82
2022-10-13T21:34:00.869Z,12.87
2022-10-13T21:36:34.519Z,12.90
2022-10-13T21:39:08.196Z,12.86
2022-10-13T21:41:34.775Z,12.83
2022-10-13T21:44:01.759Z,12.85
2022-10-13T21:46:30.699Z,12.78
2022-10-13T21:49:04.862Z,12.72
2022-10-13T21:51:34.173Z,12.76
2022-10-13T21:54:04.692Z,12.82
2022-10-13T21:56:32.303Z,12.86
2022-10-13T21:59:01.609Z,12.87
2022-10-13T22:01:28.809Z,12.85
2022-10-13T22:03:57.276Z,12.93
2022-10-13T22:06:24.750Z,12.93
2022-10-13T22:08:55.537Z,12.93
2022-10-13T22:11:31.326Z,12.83
2022-10-13T22:14:01.141Z,12.96
2022-10-13T22:16:32.490Z,12.91
2022-10-13T22:19:01.686Z,12.94
2022-10-13T22:21:37.319Z,12.96
2022-10-13T22:24:06.285Z,12.95
2022-10-13T22:26:38.797Z,12.91
2022-10-13T22:29:09.642Z,12.85
2022-10-13T22:31:37.199Z,12.82
2022-10-13T22:34:04.271Z,12.70
2022-10-13T22:36:31.657Z,12.72
2022-10-13T22:39:05.338Z,12.70
2022-10-13T22:41:35.545Z,12.66
2022-10-13T22:44:04.718Z,12.66
2022-10-13T22:46:37.009Z,12.75
2022-10-13T22:49:04.838Z,12.71
2022-10-13T22:51:35.689Z,12.65
2022-10-13T22:54:03.340Z,12.77
2022-10-13T22:56:31.791Z,12.83
2022-10-13T22:59:01.966Z,12.76
2022-10-13T23:01:31.396Z,12.83
2022-10-13T23:04:01.150Z,12.84
2022-10-13T23:06:30.563Z,12.82
2022-10-13T23:09:00.117Z,12.83
2022-10-13T23:11:29.727Z,12.86
2022-10-13T23:13:56.343Z,12.83
2022-10-13T23:16:25.365Z,12.71
2022-10-13T23:18:57.045Z,12.61
2022-10-13T23:21:27.090Z,12.50
2022-10-13T23:24:00.546Z,12.64
2022-10-13T23:26:28.270Z,12.61
2022-10-13T23:28:58.806Z,12.47
2022-10-13T23:31:29.015Z,12.49
2022-10-13T23:34:00.867Z,12.55
2022-10-13T23:36:33.249Z,12.67
2022-10-13T23:39:04.581Z,12.70
2022-10-13T23:41:33.895Z,12.74
2022-10-13T23:44:00.403Z,12.78
2022-10-13T23:46:27.156Z,12.83
2022-10-13T23:48:53.883Z,12.76
2022-10-13T23:51:24.694Z,12.88
2022-10-13T23:53:54.902Z,12.92
2022-10-13T23:56:22.083Z,12.92
2022-10-13T23:58:49.273Z,12.86
